Terminal Aerodrome Forecast
Issued by NWS

Home | Current Version | Previous Version | Text Only | Print | Product List | Glossary On
Versions: 1 2 3 4 5 6 7 8 9 10 11 12
000
FTUS45 KBOI 291128
TAFBKE
TAF
KBKE 291128Z 2912/3012 VRB06KT P6SM FEW250
     FM291800 15011G17KT P6SM FEW100 SCT250
     FM292100 15011KT P6SM FEW100 SCT250
     FM300200 VRB06KT P6SM BKN120 BKN200=

USA.gov is the U.S. government's official web portal to all federal, state and local government web resources and services.